createdAt,value
2019-01-21T00:01:56.029Z,51.33
2019-01-21T00:04:26.097Z,45.23
2019-01-21T00:06:56.345Z,50.60
2019-01-21T00:09:26.436Z,51.33
2019-01-21T00:11:56.094Z,47.40
2019-01-21T00:14:26.034Z,48.05
2019-01-21T00:16:56.580Z,66.83
2019-01-21T00:19:26.619Z,53.67
2019-01-21T00:21:56.215Z,53.80
2019-01-21T00:24:26.034Z,51.63
2019-01-21T00:26:56.121Z,52.40
2019-01-21T00:29:26.108Z,58.33
2019-01-21T00:31:56.103Z,52.85
2019-01-21T00:34:26.427Z,53.42
2019-01-21T00:37:03.282Z,51.83
2019-01-21T00:39:27.365Z,53.70
2019-01-21T00:41:57.007Z,53.40
2019-01-21T00:44:26.580Z,56.10
2019-01-21T00:46:56.391Z,52.73
2019-01-21T00:49:26.077Z,53.05
2019-01-21T00:51:56.099Z,52.77
2019-01-21T00:54:26.103Z,52.30
2019-01-21T00:56:56.153Z,54.53
2019-01-21T00:59:27.417Z,51.77
2019-01-21T01:01:57.393Z,54.63
2019-01-21T01:04:27.261Z,55.83
2019-01-21T01:06:56.768Z,50.53
2019-01-21T01:09:26.627Z,54.97
2019-01-21T01:11:56.305Z,46.33
2019-01-21T01:14:26.246Z,53.92
2019-01-21T01:16:56.338Z,50.63
2019-01-21T01:19:26.209Z,50.43
2019-01-21T01:21:56.209Z,45.70
2019-01-21T01:24:26.216Z,51.25
2019-01-21T01:26:56.268Z,58.20
2019-01-21T01:29:26.224Z,54.95
2019-01-21T01:31:56.498Z,58.80
2019-01-21T01:34:26.275Z,61.25
2019-01-21T01:36:56.254Z,53.08
2019-01-21T01:39:26.393Z,52.00
2019-01-21T01:41:56.504Z,56.42
2019-01-21T01:44:26.722Z,52.40
2019-01-21T01:46:57.500Z,55.80
2019-01-21T01:49:27.177Z,51.37
2019-01-21T01:51:56.693Z,54.60
2019-01-21T01:54:26.317Z,48.87
2019-01-21T01:56:56.295Z,53.43
2019-01-21T01:59:26.451Z,53.95
2019-01-21T02:01:56.544Z,48.23
2019-01-21T02:04:26.386Z,49.45
2019-01-21T02:06:56.486Z,55.20
2019-01-21T02:09:26.427Z,53.13
2019-01-21T02:11:56.479Z,58.02
2019-01-21T02:14:26.573Z,53.48
2019-01-21T02:16:56.717Z,51.70
2019-01-21T02:19:29.523Z,53.05
2019-01-21T02:21:59.659Z,51.20
2019-01-21T02:24:34.475Z,50.00
2019-01-21T02:27:33.489Z,52.85
2019-01-21T02:30:26.362Z,48.35
2019-01-21T02:33:44.788Z,52.25
2019-01-21T02:36:29.767Z,51.55
2019-01-21T02:39:21.711Z,46.28
2019-01-21T02:42:09.322Z,55.03
2019-01-21T02:45:20.879Z,52.43
2019-01-21T02:48:20.859Z,54.00
2019-01-21T02:51:26.457Z,58.02
2019-01-21T02:54:04.614Z,46.23
2019-01-21T02:57:02.683Z,51.08
2019-01-21T02:59:55.526Z,48.70
2019-01-21T03:02:53.920Z,52.60
2019-01-21T03:05:36.281Z,50.57
2019-01-21T03:08:55.592Z,53.83
2019-01-21T03:11:46.089Z,57.50
2019-01-21T03:14:30.249Z,50.97
2019-01-21T03:17:29.622Z,50.40
2019-01-21T03:20:24.340Z,54.53
2019-01-21T03:23:38.614Z,59.13
2019-01-21T03:26:44.135Z,53.17
2019-01-21T03:30:03.501Z,57.35
2019-01-21T03:33:02.827Z,49.17
2019-01-21T03:36:05.653Z,55.13
2019-01-21T03:39:11.798Z,46.63
2019-01-21T03:42:15.877Z,52.03
2019-01-21T03:45:34.901Z,51.50
2019-01-21T03:48:16.603Z,50.10
2019-01-21T03:51:06.923Z,50.87
2019-01-21T03:54:01.782Z,48.10
2019-01-21T03:56:56.535Z,47.17
2019-01-21T04:00:19.703Z,54.48
2019-01-21T04:03:17.952Z,46.00
2019-01-21T04:06:10.830Z,49.00
2019-01-21T04:09:08.978Z,57.03
2019-01-21T04:12:07.319Z,52.37
2019-01-21T04:15:45.771Z,49.20
2019-01-21T04:18:29.602Z,49.73
2019-01-21T04:21:45.532Z,48.67
2019-01-21T04:24:52.538Z,50.05
2019-01-21T04:28:07.438Z,50.57
2019-01-21T04:31:29.717Z,49.10
2019-01-21T04:34:49.467Z,51.63
2019-01-21T04:37:57.930Z,48.70
2019-01-21T04:40:56.436Z,55.20
2019-01-21T04:43:57.915Z,51.90
2019-01-21T04:46:59.312Z,52.10
2019-01-21T04:49:40.488Z,51.57
2019-01-21T04:52:43.078Z,56.95
2019-01-21T04:55:31.720Z,54.47
2019-01-21T04:58:44.647Z,51.80
2019-01-21T05:01:39.207Z,53.80
2019-01-21T05:04:59.266Z,56.37
2019-01-21T05:07:58.004Z,61.20
2019-01-21T05:11:07.800Z,51.95
2019-01-21T05:14:17.215Z,57.77
2019-01-21T05:17:08.567Z,59.33
2019-01-21T05:20:09.867Z,59.60
2019-01-21T05:23:18.232Z,60.40
2019-01-21T05:26:02.268Z,65.23
2019-01-21T05:29:01.473Z,54.83
2019-01-21T05:32:18.207Z,61.27
2019-01-21T05:35:13.622Z,58.30
2019-01-21T05:38:10.029Z,64.30
2019-01-21T05:40:49.662Z,61.97
2019-01-21T05:44:19.060Z,57.90
2019-01-21T05:47:17.766Z,60.92
2019-01-21T05:50:44.011Z,62.17
2019-01-21T05:53:35.723Z,64.10
2019-01-21T05:56:45.305Z,59.60
2019-01-21T05:59:56.765Z,67.17
2019-01-21T06:02:45.176Z,56.53
2019-01-21T06:05:32.748Z,57.67
2019-01-21T06:08:20.514Z,56.63
2019-01-21T06:11:23.785Z,61.40
2019-01-21T06:14:28.496Z,56.93
2019-01-21T06:17:30.965Z,54.17
2019-01-21T06:20:26.105Z,57.00
2019-01-21T06:23:24.072Z,55.43
2019-01-21T06:26:27.140Z,53.10
2019-01-21T06:29:22.039Z,51.97
2019-01-21T06:32:30.524Z,54.93
2019-01-21T06:35:33.056Z,44.80
2019-01-21T06:38:34.092Z,43.83
2019-01-21T06:41:33.775Z,50.93
2019-01-21T06:44:34.740Z,42.80
2019-01-21T06:47:32.499Z,41.80
2019-01-21T06:50:41.992Z,44.00
2019-01-21T06:53:55.898Z,44.10
2019-01-21T06:57:24.117Z,40.43
2019-01-21T07:00:43.915Z,39.58
2019-01-21T07:03:48.013Z,33.95
2019-01-21T07:06:45.922Z,38.80
2019-01-21T07:09:54.995Z,37.47
2019-01-21T07:13:13.838Z,35.93
2019-01-21T07:16:28.103Z,36.50
2019-01-21T07:19:22.321Z,44.90
2019-01-21T07:22:24.691Z,39.70
2019-01-21T07:25:44.573Z,41.50
2019-01-21T07:29:02.148Z,45.03
2019-01-21T07:32:03.499Z,44.53
2019-01-21T07:35:28.038Z,44.80
2019-01-21T07:38:23.076Z,43.63
2019-01-21T07:41:11.696Z,42.80
2019-01-21T07:44:22.319Z,45.98
2019-01-21T07:47:37.596Z,41.97
2019-01-21T07:50:47.672Z,42.13
2019-01-21T07:53:57.505Z,48.63
2019-01-21T07:57:26.724Z,47.23
2019-01-21T08:00:42.982Z,44.57
2019-01-21T08:03:49.554Z,43.57
2019-01-21T08:06:40.700Z,42.33
2019-01-21T08:10:03.756Z,50.00
2019-01-21T08:12:59.522Z,43.93
2019-01-21T08:16:25.607Z,65.28
2019-01-21T08:19:10.267Z,46.00
2019-01-21T08:22:15.803Z,48.80
2019-01-21T08:25:28.741Z,43.23
2019-01-21T08:28:15.125Z,50.25
2019-01-21T08:31:31.223Z,44.23
2019-01-21T08:34:25.591Z,52.00
2019-01-21T08:37:31.281Z,43.70
2019-01-21T08:40:30.202Z,44.97
2019-01-21T08:43:37.953Z,46.30
2019-01-21T08:46:44.046Z,46.18
2019-01-21T08:49:41.312Z,42.53
2019-01-21T08:52:57.893Z,46.53
2019-01-21T08:56:02.144Z,50.83
2019-01-21T08:59:07.601Z,44.23
2019-01-21T09:02:03.201Z,45.73
2019-01-21T09:05:12.901Z,40.27
2019-01-21T09:08:13.653Z,51.00
2019-01-21T09:11:14.728Z,57.60
2019-01-21T09:14:14.719Z,41.83
2019-01-21T09:17:05.601Z,48.33
2019-01-21T09:19:53.515Z,39.20
2019-01-21T09:22:37.278Z,42.67
2019-01-21T09:25:32.825Z,42.70
2019-01-21T09:28:21.308Z,39.55
2019-01-21T09:31:27.247Z,44.27
2019-01-21T09:34:47.720Z,44.73
2019-01-21T09:37:41.524Z,44.47
2019-01-21T09:40:25.578Z,41.40
2019-01-21T09:43:28.659Z,42.70
2019-01-21T09:46:22.575Z,44.73
2019-01-21T09:48:51.173Z,43.87
2019-01-21T09:51:21.619Z,43.35
2019-01-21T09:53:53.935Z,44.53
2019-01-21T09:56:23.961Z,43.13
2019-01-21T09:58:55.711Z,42.60
2019-01-21T10:01:26.850Z,47.73
2019-01-21T10:03:56.459Z,46.90
2019-01-21T10:06:47.077Z,38.88
2019-01-21T10:09:39.392Z,38.17
2019-01-21T10:13:14.392Z,41.83
2019-01-21T10:15:56.742Z,33.65
2019-01-21T10:18:49.695Z,37.27
2019-01-21T10:21:56.952Z,35.87
2019-01-21T10:24:44.407Z,36.67
2019-01-21T10:27:52.661Z,38.70
2019-01-21T10:30:54.007Z,39.33
2019-01-21T10:34:04.353Z,35.73
2019-01-21T10:37:17.067Z,35.30
2019-01-21T10:40:22.003Z,37.77
2019-01-21T10:43:30.201Z,30.83
2019-01-21T10:46:11.496Z,32.83
2019-01-21T10:49:00.856Z,41.77
2019-01-21T10:51:40.693Z,38.80
2019-01-21T10:54:19.058Z,30.93
2019-01-21T10:57:13.322Z,32.67
2019-01-21T11:00:19.969Z,31.93
2019-01-21T11:03:05.281Z,31.80
2019-01-21T11:05:49.204Z,34.00
2019-01-21T11:09:06.602Z,41.03
2019-01-21T11:12:13.851Z,43.25
2019-01-21T11:15:23.144Z,33.00
2019-01-21T11:18:20.114Z,32.67
2019-01-21T11:21:20.759Z,33.30
2019-01-21T11:24:20.362Z,32.00
2019-01-21T11:27:32.684Z,29.63
2019-01-21T11:30:34.739Z,31.97
2019-01-21T11:33:55.040Z,30.57
2019-01-21T11:37:01.724Z,24.60
2019-01-21T11:39:48.521Z,25.43
2019-01-21T11:42:27.077Z,28.27
2019-01-21T11:45:30.666Z,27.10
2019-01-21T11:48:50.710Z,28.37
2019-01-21T11:51:47.463Z,27.95
2019-01-21T11:54:43.479Z,26.37
2019-01-21T11:57:40.528Z,27.02
2019-01-21T12:00:19.669Z,27.62
2019-01-21T12:03:02.596Z,26.10
2019-01-21T12:06:09.434Z,24.27
2019-01-21T12:09:10.911Z,24.32
2019-01-21T12:12:14.644Z,25.92
2019-01-21T12:15:26.109Z,28.15
2019-01-21T12:18:36.883Z,26.50
2019-01-21T12:21:57.386Z,28.30
2019-01-21T12:24:34.276Z,27.40
2019-01-21T12:27:29.314Z,27.37
2019-01-21T12:30:48.010Z,28.37
2019-01-21T12:33:49.459Z,26.97
2019-01-21T12:36:52.492Z,26.57
2019-01-21T12:39:44.595Z,25.80
2019-01-21T12:42:49.001Z,21.97
2019-01-21T12:45:55.987Z,25.72
2019-01-21T12:49:01.707Z,23.67
2019-01-21T12:52:12.294Z,22.57
2019-01-21T12:54:58.846Z,23.07
2019-01-21T12:58:21.528Z,23.50
2019-01-21T13:01:22.843Z,24.67
2019-01-21T13:04:30.924Z,23.77
2019-01-21T13:07:23.974Z,23.20
2019-01-21T13:10:26.846Z,26.43
2019-01-21T13:13:29.171Z,23.17
2019-01-21T13:16:32.207Z,25.57
2019-01-21T13:19:42.231Z,24.80
2019-01-21T13:22:34.485Z,27.47
2019-01-21T13:25:26.825Z,24.20
2019-01-21T13:28:27.483Z,24.03
2019-01-21T13:31:10.576Z,19.27
2019-01-21T13:34:12.815Z,21.73
2019-01-21T13:37:09.922Z,21.85
2019-01-21T13:40:09.543Z,26.60
2019-01-21T13:42:56.787Z,21.67
2019-01-21T13:46:17.947Z,24.33
2019-01-21T13:49:05.055Z,24.13
2019-01-21T13:52:31.551Z,24.37
2019-01-21T13:55:21.091Z,22.97
2019-01-21T13:58:21.713Z,25.75
2019-01-21T14:01:24.595Z,23.43
2019-01-21T14:04:50.381Z,23.43
2019-01-21T14:08:12.971Z,21.23
2019-01-21T14:11:08.075Z,23.23
2019-01-21T14:14:21.797Z,24.93
2019-01-21T14:17:08.707Z,25.88
2019-01-21T14:19:49.172Z,25.67
2019-01-21T14:22:59.214Z,30.70
2019-01-21T14:26:15.740Z,27.93
2019-01-21T14:29:11.620Z,31.10
2019-01-21T14:32:19.774Z,24.33
2019-01-21T14:35:21.295Z,26.62
2019-01-21T14:38:29.440Z,29.30
2019-01-21T14:41:37.498Z,25.47
2019-01-21T14:44:45.829Z,26.97
2019-01-21T14:47:54.276Z,24.07
2019-01-21T14:50:51.623Z,26.83
2019-01-21T14:57:31.168Z,23.98
2019-01-21T15:00:39.478Z,25.35
2019-01-21T15:03:47.600Z,25.20
2019-01-21T15:06:56.002Z,24.73
2019-01-21T15:10:04.462Z,26.80
2019-01-21T15:13:12.663Z,26.10
2019-01-21T15:16:21.120Z,24.45
2019-01-21T15:19:12.720Z,28.50
2019-01-21T15:22:08.955Z,34.80
2019-01-21T15:25:17.102Z,29.80
2019-01-21T15:28:25.216Z,26.60
2019-01-21T15:31:33.396Z,28.38
2019-01-21T15:34:41.427Z,29.23
2019-01-21T15:37:33.212Z,28.60
2019-01-21T15:40:41.430Z,27.33
2019-01-21T15:43:36.847Z,30.57
2019-01-21T15:46:43.781Z,30.75
2019-01-21T15:49:41.208Z,32.20
2019-01-21T15:52:18.873Z,31.13
2019-01-21T15:55:21.212Z,31.93
2019-01-21T15:58:31.805Z,30.23
2019-01-21T16:01:37.189Z,35.03
2019-01-21T16:04:41.809Z,31.40
2019-01-21T16:07:27.006Z,35.27
2019-01-21T16:10:35.463Z,38.30
2019-01-21T16:13:19.403Z,31.77
2019-01-21T16:16:13.513Z,30.85
2019-01-21T16:18:56.761Z,32.75
2019-01-21T16:22:07.890Z,30.17
2019-01-21T16:24:56.496Z,31.77
2019-01-21T16:27:34.606Z,35.97
2019-01-21T16:30:46.317Z,28.57
2019-01-21T16:34:02.084Z,33.97
2019-01-21T16:36:39.919Z,29.87
2019-01-21T16:39:32.732Z,30.40
2019-01-21T16:42:13.957Z,31.57
2019-01-21T16:44:46.924Z,35.20
2019-01-21T16:47:16.803Z,38.67
2019-01-21T16:49:46.671Z,36.47
2019-01-21T16:52:16.516Z,34.53
2019-01-21T16:54:46.304Z,37.60
2019-01-21T16:57:16.217Z,35.47
2019-01-21T16:59:45.797Z,35.40
2019-01-21T17:02:15.379Z,37.95
2019-01-21T17:04:45.192Z,38.80
2019-01-21T17:07:14.798Z,31.43
2019-01-21T17:09:44.323Z,36.23
2019-01-21T17:12:13.829Z,36.08
2019-01-21T17:14:43.542Z,41.20
2019-01-21T17:17:14.650Z,49.30
2019-01-21T17:19:44.204Z,42.37
2019-01-21T17:22:13.852Z,39.40
2019-01-21T17:24:47.044Z,37.47
2019-01-21T17:27:20.257Z,37.53
2019-01-21T17:29:50.678Z,39.70
2019-01-21T17:32:20.431Z,37.03
2019-01-21T17:34:50.524Z,41.57
2019-01-21T17:37:20.903Z,42.53
2019-01-21T17:39:51.308Z,41.25
2019-01-21T17:42:22.754Z,38.07
2019-01-21T17:44:53.473Z,37.17
2019-01-21T17:47:24.119Z,44.70
2019-01-21T17:49:54.181Z,32.77
2019-01-21T17:52:23.846Z,34.63
2019-01-21T17:54:53.509Z,32.87
2019-01-21T17:57:23.238Z,37.53
2019-01-21T17:59:53.403Z,55.73
2019-01-21T18:02:23.429Z,39.70
2019-01-21T18:04:53.962Z,44.50
2019-01-21T18:07:24.734Z,58.30
2019-01-21T18:09:55.706Z,60.37
2019-01-21T18:12:29.134Z,63.40
2019-01-21T18:14:59.075Z,53.33
2019-01-21T18:17:28.777Z,56.40
2019-01-21T18:19:58.406Z,44.10
2019-01-21T18:22:28.028Z,48.60
2019-01-21T18:24:58.611Z,39.67
2019-01-21T18:27:28.416Z,38.67
2019-01-21T18:29:58.186Z,39.55
2019-01-21T18:32:27.803Z,40.63
2019-01-21T18:34:57.688Z,37.13
2019-01-21T18:37:27.531Z,34.97
2019-01-21T18:39:57.103Z,36.97
2019-01-21T18:42:26.842Z,63.93
2019-01-21T18:44:56.370Z,65.90
2019-01-21T18:47:27.525Z,64.97
2019-01-21T18:49:57.033Z,45.07
2019-01-21T18:52:26.872Z,51.20
2019-01-21T18:54:56.476Z,54.08
2019-01-21T18:57:26.006Z,48.52
2019-01-21T18:59:55.622Z,42.93
2019-01-21T19:02:25.606Z,37.00
2019-01-21T19:04:55.165Z,39.30
2019-01-21T19:07:24.930Z,38.15
2019-01-21T19:09:54.516Z,41.43
2019-01-21T19:12:24.119Z,35.53
2019-01-21T19:14:53.667Z,39.92
2019-01-21T19:17:23.599Z,39.27
2019-01-21T19:19:53.187Z,42.95
2019-01-21T19:22:23.088Z,35.58
2019-01-21T19:24:52.638Z,33.37
2019-01-21T19:27:22.185Z,42.62
2019-01-21T19:29:51.831Z,33.33
2019-01-21T19:32:21.520Z,37.33
2019-01-21T19:34:52.705Z,34.53
2019-01-21T19:37:22.496Z,29.03
2019-01-21T19:39:52.416Z,36.53
2019-01-21T19:42:22.224Z,36.90
2019-01-21T19:44:51.955Z,53.97
2019-01-21T19:47:21.467Z,39.30
2019-01-21T19:49:51.720Z,34.55
2019-01-21T19:52:22.041Z,41.20
2019-01-21T19:54:51.837Z,37.20
2019-01-21T19:57:21.418Z,36.27
2019-01-21T19:59:50.939Z,38.50
2019-01-21T20:02:21.019Z,31.00
2019-01-21T20:04:50.744Z,37.17
2019-01-21T20:07:20.367Z,31.23
2019-01-21T20:09:50.567Z,39.08
2019-01-21T20:12:20.201Z,34.90
2019-01-21T20:14:50.408Z,41.40
2019-01-21T20:17:20.559Z,31.97
2019-01-21T20:19:50.464Z,41.03
2019-01-21T20:22:22.728Z,37.25
2019-01-21T20:24:52.916Z,37.63
2019-01-21T20:27:23.254Z,40.03
2019-01-21T20:29:53.174Z,38.75
2019-01-21T20:32:25.539Z,33.33
2019-01-21T20:34:57.113Z,34.25
2019-01-21T20:37:26.736Z,36.28
2019-01-21T20:39:56.350Z,29.60
2019-01-21T20:42:26.147Z,41.53
2019-01-21T20:44:55.633Z,32.50
2019-01-21T20:47:25.341Z,31.20
2019-01-21T20:49:57.713Z,33.33
2019-01-21T20:52:27.769Z,36.68
2019-01-21T20:54:57.785Z,37.33
2019-01-21T20:57:27.521Z,36.27
2019-01-21T20:59:57.149Z,40.52
2019-01-21T21:02:28.641Z,36.28
2019-01-21T21:04:58.546Z,37.50
2019-01-21T21:07:28.765Z,35.85
2019-01-21T21:09:58.676Z,32.27
2019-01-21T21:12:28.693Z,37.42
2019-01-21T21:14:58.202Z,34.60
2019-01-21T21:17:28.188Z,34.45
2019-01-21T21:19:58.192Z,37.00
2019-01-21T21:22:27.853Z,39.90
2019-01-21T21:24:57.454Z,36.60
2019-01-21T21:27:27.477Z,33.47
2019-01-21T21:29:57.040Z,34.67
2019-01-21T21:32:29.634Z,35.33
2019-01-21T21:34:59.392Z,35.58
2019-01-21T21:37:28.974Z,33.03
2019-01-21T21:39:58.749Z,42.13
2019-01-21T21:42:28.487Z,36.97
2019-01-21T21:44:58.196Z,32.33
2019-01-21T21:47:27.790Z,34.13
2019-01-21T21:49:57.722Z,41.60
2019-01-21T21:52:28.017Z,37.13
2019-01-21T21:54:58.063Z,38.47
2019-01-21T21:57:27.618Z,33.10
2019-01-21T21:59:57.576Z,36.37
2019-01-21T22:02:27.793Z,34.20
2019-01-21T22:04:58.541Z,37.60
2019-01-21T22:07:28.123Z,38.03
2019-01-21T22:09:57.634Z,34.90
2019-01-21T22:12:27.789Z,36.90
2019-01-21T22:14:57.624Z,37.57
2019-01-21T22:17:27.309Z,34.30
2019-01-21T22:19:57.099Z,43.50
2019-01-21T22:22:27.060Z,34.70
2019-01-21T22:24:56.665Z,38.30
2019-01-21T22:27:26.652Z,36.97
2019-01-21T22:29:56.257Z,36.67
2019-01-21T22:32:26.180Z,44.73
2019-01-21T22:34:55.803Z,34.50
2019-01-21T22:37:25.420Z,36.60
2019-01-21T22:39:56.205Z,37.17
2019-01-21T22:42:25.910Z,35.43
2019-01-21T22:44:55.419Z,41.80
2019-01-21T22:47:25.200Z,37.53
2019-01-21T22:49:55.046Z,39.50
2019-01-21T22:52:24.580Z,35.47
2019-01-21T22:54:54.145Z,33.53
2019-01-21T22:57:23.754Z,34.23
2019-01-21T22:59:53.362Z,36.80
2019-01-21T23:02:22.925Z,35.27
2019-01-21T23:04:53.021Z,35.77
2019-01-21T23:07:22.611Z,34.18
2019-01-21T23:09:52.511Z,33.10
2019-01-21T23:12:22.155Z,43.30
2019-01-21T23:14:52.032Z,33.10
2019-01-21T23:17:21.874Z,42.23
2019-01-21T23:19:51.618Z,42.73
2019-01-21T23:22:21.218Z,37.73
2019-01-21T23:24:51.768Z,37.13
2019-01-21T23:27:21.612Z,37.97
2019-01-21T23:29:51.439Z,34.13
2019-01-21T23:32:21.077Z,37.70
2019-01-21T23:34:51.355Z,35.73
2019-01-21T23:37:22.262Z,41.27
2019-01-21T23:39:51.788Z,37.70
2019-01-21T23:42:21.686Z,40.37
2019-01-21T23:44:52.460Z,36.70
2019-01-21T23:47:22.449Z,38.63
2019-01-21T23:49:52.035Z,38.07
2019-01-21T23:52:21.632Z,36.53
2019-01-21T23:54:51.506Z,39.30
2019-01-21T23:57:21.035Z,34.27
2019-01-21T23:59:50.541Z,33.60
